createdAt,value
2023-02-20T00:06:03.782Z,7.76
2023-02-20T00:13:05.321Z,7.88
2023-02-20T00:20:07.596Z,7.81
2023-02-20T00:27:09.216Z,7.67
2023-02-20T00:34:10.793Z,7.68
2023-02-20T00:41:14.229Z,7.75
2023-02-20T00:48:15.837Z,7.68
2023-02-20T00:55:17.502Z,7.70
2023-02-20T01:02:20.677Z,7.57
2023-02-20T01:09:23.547Z,7.67
2023-02-20T01:16:25.179Z,7.57
2023-02-20T01:23:26.872Z,7.53
2023-02-20T01:30:28.495Z,7.53
2023-02-20T01:37:30.085Z,7.48
2023-02-20T01:44:34.480Z,7.37
2023-02-20T01:51:38.450Z,7.47
2023-02-20T01:58:45.587Z,7.43
2023-02-20T02:05:49.704Z,7.46
2023-02-20T02:12:52.760Z,7.39
2023-02-20T02:20:07.459Z,7.62
2023-02-20T02:27:46.544Z,7.50
2023-02-20T02:34:56.407Z,7.39
2023-02-20T02:42:01.833Z,7.67
2023-02-20T02:49:05.744Z,7.58
2023-02-20T02:56:23.837Z,7.88
2023-02-20T03:03:30.248Z,7.72
2023-02-20T03:10:32.137Z,7.92
2023-02-20T03:17:56.764Z,8.09
2023-02-20T03:25:03.980Z,8.12
2023-02-20T03:32:28.965Z,8.27
2023-02-20T03:39:51.388Z,8.45
2023-02-20T03:46:53.158Z,8.43
2023-02-20T03:53:54.795Z,8.33
2023-02-20T04:00:56.671Z,8.38
2023-02-20T04:08:31.367Z,8.70
2023-02-20T04:15:33.912Z,8.42
2023-02-20T04:22:38.150Z,8.61
2023-02-20T04:29:40.762Z,8.82
2023-02-20T04:36:42.536Z,8.85
2023-02-20T04:43:44.891Z,8.78
2023-02-20T04:50:46.631Z,8.87
2023-02-20T04:57:50.281Z,8.94
2023-02-20T05:04:52.013Z,8.93
2023-02-20T05:11:55.777Z,8.86
2023-02-20T05:18:57.483Z,8.98
2023-02-20T05:25:59.091Z,9.08
2023-02-20T05:33:00.656Z,9.05
2023-02-20T05:40:02.250Z,9.12
2023-02-20T05:47:03.940Z,9.11
2023-02-20T05:54:05.603Z,8.99
2023-02-20T06:01:07.152Z,9.11
2023-02-20T06:08:08.687Z,9.06
2023-02-20T06:15:10.336Z,9.20
2023-02-20T06:22:11.988Z,9.00
2023-02-20T06:29:14.133Z,9.43
2023-02-20T06:36:20.544Z,9.35
2023-02-20T06:43:22.105Z,9.35
2023-02-20T06:50:23.699Z,9.34
2023-02-20T06:57:25.245Z,9.42
2023-02-20T07:04:27.886Z,9.46
2023-02-20T07:11:29.585Z,9.72
2023-02-20T07:18:31.214Z,9.35
2023-02-20T07:25:32.870Z,9.71
2023-02-20T07:32:34.414Z,9.58
2023-02-20T07:39:35.971Z,9.80
2023-02-20T07:46:37.557Z,9.74
2023-02-20T07:53:39.109Z,10.00
2023-02-20T08:00:40.714Z,10.16
2023-02-20T08:07:46.550Z,10.26
2023-02-20T08:14:51.132Z,10.24
2023-02-20T08:21:52.705Z,10.22
2023-02-20T08:28:54.235Z,10.37
2023-02-20T08:35:57.219Z,10.29
2023-02-20T08:42:59.163Z,10.44
2023-02-20T08:50:00.753Z,10.54
2023-02-20T08:57:02.356Z,10.50
2023-02-20T09:04:04.027Z,10.62
2023-02-20T09:11:05.870Z,10.58
2023-02-20T09:18:09.950Z,10.74
2023-02-20T09:25:11.901Z,11.10
2023-02-20T09:32:13.838Z,11.28
2023-02-20T09:39:17.772Z,11.15
2023-02-20T09:46:20.220Z,11.25
2023-02-20T09:53:27.897Z,11.51
2023-02-20T10:00:31.552Z,11.57
2023-02-20T10:07:37.887Z,11.54
2023-02-20T10:15:11.153Z,11.79
2023-02-20T10:22:22.126Z,11.87
2023-02-20T10:29:25.415Z,12.07
2023-02-20T10:36:30.261Z,11.98
2023-02-20T10:43:42.696Z,12.30
2023-02-20T10:50:50.704Z,12.21
2023-02-20T10:57:56.891Z,12.46
2023-02-20T11:05:01.727Z,12.60
2023-02-20T11:12:03.335Z,12.55
2023-02-20T11:19:08.635Z,12.55
2023-02-20T11:26:25.810Z,12.42
2023-02-20T11:33:29.100Z,12.41
2023-02-20T11:40:33.867Z,12.44
2023-02-20T11:47:35.398Z,12.55
2023-02-20T11:54:36.936Z,12.69
2023-02-20T12:01:38.503Z,12.81
2023-02-20T12:09:02.121Z,12.69
2023-02-20T12:16:25.485Z,12.69
2023-02-20T12:23:43.769Z,12.79
2023-02-20T12:31:11.304Z,13.05
2023-02-20T12:38:23.705Z,12.96
2023-02-20T12:45:46.330Z,12.91
2023-02-20T12:53:12.129Z,12.94
2023-02-20T13:00:32.916Z,12.97
2023-02-20T13:07:37.289Z,12.98
2023-02-20T13:14:57.341Z,12.83
2023-02-20T13:21:59.044Z,12.91
2023-02-20T13:29:16.779Z,12.90
2023-02-20T13:36:28.481Z,12.67
2023-02-20T13:43:33.589Z,12.53
2023-02-20T13:50:35.213Z,12.63
2023-02-20T13:57:55.884Z,12.42
2023-02-20T14:05:02.094Z,12.34
2023-02-20T14:12:08.434Z,12.34
2023-02-20T14:19:18.361Z,12.32
2023-02-20T14:26:30.876Z,12.43
2023-02-20T14:33:32.865Z,12.52
2023-02-20T14:40:37.497Z,12.45
2023-02-20T14:47:52.728Z,12.60
2023-02-20T14:55:05.131Z,12.41
2023-02-20T15:02:33.317Z,12.55
2023-02-20T15:09:43.106Z,12.47
2023-02-20T15:16:44.741Z,12.69
2023-02-20T15:23:46.335Z,12.62
2023-02-20T15:31:07.079Z,12.73
2023-02-20T15:38:09.311Z,12.50
2023-02-20T15:45:13.913Z,12.59
2023-02-20T15:52:17.484Z,12.83
2023-02-20T15:59:19.045Z,12.83
2023-02-20T16:06:22.359Z,12.80
2023-02-20T16:13:29.154Z,12.70
2023-02-20T16:20:30.999Z,12.66
2023-02-20T16:27:32.681Z,12.71
2023-02-20T16:34:35.258Z,12.60
2023-02-20T16:41:36.939Z,12.70
2023-02-20T16:48:43.115Z,12.64
2023-02-20T16:55:47.097Z,12.63
2023-02-20T17:02:48.730Z,12.47
2023-02-20T17:09:50.373Z,12.48
2023-02-20T17:16:52.019Z,12.41
2023-02-20T17:23:53.645Z,12.55
2023-02-20T17:30:55.899Z,12.46
2023-02-20T17:37:57.592Z,12.38
2023-02-20T17:45:00.209Z,12.62
2023-02-20T17:52:01.967Z,12.50
2023-02-20T17:59:03.520Z,12.36
2023-02-20T18:06:05.484Z,12.44
2023-02-20T18:13:07.088Z,12.44
2023-02-20T18:20:08.969Z,12.40
2023-02-20T18:27:10.580Z,12.33
2023-02-20T18:34:12.285Z,12.39
2023-02-20T18:41:13.993Z,12.41
2023-02-20T18:48:15.677Z,12.12
2023-02-20T18:55:17.763Z,12.27
2023-02-20T19:02:19.604Z,12.09
2023-02-20T19:09:22.782Z,12.19
2023-02-20T19:16:24.425Z,12.26
2023-02-20T19:23:25.951Z,12.15
2023-02-20T19:30:27.603Z,12.01
2023-02-20T19:37:29.222Z,11.96
2023-02-20T19:44:30.825Z,12.02
2023-02-20T19:51:32.504Z,11.95
2023-02-20T19:58:37.055Z,12.06
2023-02-20T20:05:38.638Z,11.94
2023-02-20T20:12:49.512Z,12.05
2023-02-20T20:20:00.397Z,12.37
2023-02-20T20:27:02.689Z,12.27
2023-02-20T20:34:05.162Z,12.30
2023-02-20T20:41:06.862Z,12.36
2023-02-20T20:48:08.741Z,12.33
2023-02-20T20:55:10.504Z,12.52
2023-02-20T21:02:12.374Z,12.35
2023-02-20T21:09:14.006Z,12.33
2023-02-20T21:16:16.406Z,12.54
2023-02-20T21:23:18.247Z,12.47
2023-02-20T21:30:20.428Z,12.47
2023-02-20T21:37:22.496Z,12.52
2023-02-20T21:44:27.503Z,12.61
2023-02-20T21:51:29.156Z,12.61
2023-02-20T21:58:49.295Z,12.62
2023-02-20T22:05:50.815Z,12.68
2023-02-20T22:13:11.156Z,12.61
2023-02-20T22:20:31.752Z,12.51
2023-02-20T22:27:52.090Z,12.38
2023-02-20T22:35:12.540Z,12.68
2023-02-20T22:42:35.225Z,12.69
2023-02-20T22:49:55.948Z,12.41
2023-02-20T22:57:16.290Z,12.64
2023-02-20T23:04:36.541Z,12.62
2023-02-20T23:11:56.690Z,12.58
2023-02-20T23:19:17.010Z,12.44
2023-02-20T23:26:37.053Z,12.46
2023-02-20T23:33:57.208Z,12.42
2023-02-20T23:41:17.297Z,12.59
2023-02-20T23:48:37.198Z,12.46
2023-02-20T23:55:57.902Z,12.43
